Historyczne dane pomiarowe

Dodano dane terminowe – wersja testowa.

Dane z okresu 1951-2019

Wersja bazy: 1.34 [2019-03-16, lista zmian], aktualizacja planowana na 2019-04-15

Dane meteo z obszaru Polski uzyskane na podstawie danych udostępnionych przez Instytut Meteorologii i Gospodarki Wodnej – Państwowy Instytut Badawczy.

 

Wybierz Datę:    

       

TemperaturaWilgotnośćWiatrCiśnienieOpadyŚniegCzas trwania zjawisk
 Stacja t tx tn tng RH VA  wxwx mslp ppp RRR   cm mm wxwxwxwxwxwxwx
1983-08-14 11.3 15.9-- 86.8- 3.0 1.0---- 0.6------------
1983-08-13 12.1 20.1-- 91.5- 4.7 2.0---- 4.4------------
1983-08-12 16.9 25.0-- 80.8- 2.7 1.0---- 1.1------------
1983-08-11 17.4 23.1-- 83.8- 2.7 1.0---- 6.9------------
1983-08-10 16.9 24.0-- 77.3- 1.7 1.3---- 0.0------------
1983-08-09 16.1 24.9-- 87.5- 4.0 0.3---- 1.0------------
1983-08-08 16.4 21.7-- 88.3- 3.3 1.3---- 0.9------------
1983-08-07 13.5 16.9-- 95.8- 4.7 0.3---- 3.2------------
1983-08-06 13.6 18.2-- 83.3- 4.0 1.3---- 3.2------------
1983-08-05 11.5 15.9-- 82.0- 4.0 0.7---- 0.0------------
1983-08-04 11.4 17.5-- 92.8- 4.7 0.3---- 6.8------------
1983-08-03 18.0 24.9-- 86.8- 3.7 1.0---- 4.8------------
1983-08-02 18.1 27.8-- 85.0- 2.7 1.3---- 21.2------------
1983-08-01 18.3 29.7-- 69.3- 0.0 1.3---- 0.0------------
1983-07-31 17.0 23.5-- 72.0- 0.3 0.3---- 0.0------------
1983-07-30 16.8 20.7-- 83.0- 3.7 0.3---- 0.2------------
1983-07-29 17.7 24.9-- 74.3- 3.0 3.0---- 4.4------------
1983-07-28 21.0 26.8-- 68.8- 2.3 1.7---- 0.0------------
1983-07-27 19.6 30.8-- 69.0- 1.0 0.7---- 0.0------------
1983-07-26 18.4 25.8-- 70.8- 2.7 1.3---- 0.0------------
1983-07-25 16.2 19.6-- 73.8- 3.0 1.7---- 0.0------------
1983-07-24 15.4 21.2-- 81.3- 2.7 1.3---- 0.9------------
1983-07-23 15.3 19.1-- 79.3- 2.7 1.7---- 0.0------------
1983-07-22 10.3 14.8-- 89.0- 4.7 1.3---- 3.3------------
1983-07-21 10.1 14.5-- 76.0- 3.3 3.0---- 0.3------------
1983-07-20 17.0 25.8-- 80.3- 3.7 2.0---- 1.3------------
1983-07-19 21.5 28.7-- 70.8- 1.7 2.0---- 0.0------------
1983-07-18 20.1 29.9-- 73.3- 0.7 0.7---- 0.6------------
1983-07-17 19.8 25.0-- 74.0- 1.3 1.0---- 0.0------------
1983-07-16 19.3 26.9-- 88.8- 0.7 1.3---- 0.0------------
1983-07-15 18.2 23.0-- 71.5- 1.3 2.0---- 0.0------------
1983-07-14 13.9 18.0-- 97.5- 4.7 1.3---- 41.1------------
1983-07-13 15.1 19.3-- 84.3- 4.0 2.0---- 13.5------------
1983-07-12 14.9 19.2-- 92.0- 4.0 1.3---- 39.7------------
1983-07-11 16.8 25.0-- 85.8- 3.7 0.7---- 10.7------------
1983-07-10 19.1 26.6-- 68.5- 1.3 1.7---- 0.0------------
1983-07-09 17.6 24.9-- 72.8- 1.0 2.7---- 0.0------------
1983-07-08 17.2 25.1-- 66.8- 0.0 1.3---- 0.0------------
1983-07-07 19.7 27.5-- 72.3- 1.0 1.7---- 0.0------------
1983-07-06 18.8 27.1-- 71.3- 2.0 1.3---- 0.0------------
1983-07-05 16.9 25.8-- 73.0- 1.7 1.3---- 0.0------------
1983-07-04 16.9 24.0-- 72.8- 1.3 1.0---- 0.0------------
1983-07-03 17.4 27.1-- 74.5- 3.0 1.7---- 0.0------------
1983-07-02 16.0 23.1-- 85.5- 4.7 1.0---- 0.0------------
1983-07-01 17.1 25.0-- 71.3- 2.0 1.7---- 0.0------------
1983-06-30 13.6 23.0-- 73.3- 0.7 0.3---- 0.0------------
1983-06-29 13.1 18.0-- 73.0- 3.0 1.0---- 0.0------------
1983-06-28 13.9 19.0-- 95.0- 4.0 0.0---- 5.4------------
1983-06-27 16.1 24.9-- 90.5- 3.3 0.3---- 14.7------------
1983-06-26 14.9 24.5-- 75.8- 2.7 0.7---- 0.0------------
1983-06-25 18.3 26.2-- 64.5- 0.0 1.0---- 0.0------------
1983-06-24 15.9 25.4-- 69.0- 0.0 1.0---- 0.0------------
1983-06-23 12.2 20.5-- 72.3- 0.3 2.0---- 0.0------------
1983-06-22 14.8 21.0-- 72.8- 1.3 2.0---- 0.0------------
1983-06-21 17.6 23.1-- 77.0- 3.0 1.0---- 0.0------------
1983-06-20 15.4 16.9-- 94.5- 4.7 0.7---- 15.6------------
1983-06-19 12.3 15.2-- 96.0- 4.7 0.7---- 67.1------------
1983-06-18 9.8 12.0-- 95.0- 6.0 0.0---- 19.6------------
1983-06-17 9.7 12.4-- 88.3- 4.7 1.3---- 14.2------------
1983-06-16 8.8 13.6-- 97.5- 6.0 1.7---- 11.8------------
273.9 ms

 

Źródłem pochodzenia danych jest Instytut Meteorologii i Gospodarki Wodnej – Państwowy Instytut Badawczy. Dane Instytutu Meteorologii i Gospodarki Wodnej – Państwowego Instytutu Badawczego zostały przetworzone.

Dane źródłowe można odnaleźć na stronie https://dane.imgw.pl